Time;durP1;ratioP1;P1;durP2;ratioP2;P2;SDS_P1;SDS_P2;PMS_P1;PMS_P2;Temp;Humidity;BMP_temperature;BMP_pressure;BME280_temperature;BME280_humidity;BME280_pressure;Samples;Min_cycle;Max_cycle;Signal;HPM_P1;HPM_P2
2022/09/17 00:00:04;;;;;;;;;;;;;;;9.33;100.00;98947.31;3056449;19;20378;-47
2022/09/17 00:01:10;;;;;;;;;;;;;;;9.38;100.00;98940.66;3056666;19;19950;-47
2022/09/17 00:02:14;;;;;;;;;;;;;;;9.45;100.00;98940.97;3055627;19;19954;-48
2022/09/17 00:03:16;;;;;;;;;;;;;;;9.51;100.00;98940.50;3056135;19;19923;-47
2022/09/17 00:04:21;;;;;;;;;;;;;;;9.58;100.00;98933.69;3054499;19;20218;-48
2022/09/17 00:05:23;;;;;;;;;;;;;;;9.65;100.00;98942.88;3056661;19;19923;-47
2022/09/17 00:06:27;;;;;;;;;;;;;;;9.69;100.00;98938.13;3056619;19;20421;-47
2022/09/17 00:07:29;;;;;;;;;;;;;;;9.74;100.00;98947.44;3057043;19;20001;-47
2022/09/17 00:08:34;;;;;;;;;;;;;;;9.79;100.00;98940.88;3056522;19;19934;-47
2022/09/17 00:09:36;;;;;;;;;;;;;;;9.82;100.00;98949.47;3055478;19;19927;-47
2022/09/17 00:10:41;;;;;;;;;;;;;;;9.86;100.00;98950.06;3055395;19;19926;-48
2022/09/17 00:11:45;;;;;;;;;;;;;;;9.89;100.00;98944.47;3057074;19;19932;-48
2022/09/17 00:12:47;;;;;;;;;;;;;;;9.90;100.00;98948.84;3056440;19;20326;-48
2022/09/17 00:13:52;;;;;;;;;;;;;;;9.92;100.00;98954.84;3056427;19;19997;-47
2022/09/17 00:14:54;;;;;;;;;;;;;;;9.90;100.00;98951.50;3056381;19;20003;-47
2022/09/17 00:15:58;;;;;;;;;;;;;;;9.89;100.00;98963.97;3056192;19;19914;-47
2022/09/17 00:17:00;;;;;;;;;;;;;;;9.88;100.00;98964.09;3056523;19;19945;-47
2022/09/17 00:18:05;;;;;;;;;;;;;;;9.85;100.00;98959.88;3056701;19;19922;-48
2022/09/17 00:19:09;;;;;;;;;;;;;;;9.82;100.00;98969.91;3056670;19;19978;-47
2022/09/17 00:20:13;;;;;;;;;;;;;;;9.80;100.00;98966.53;3055926;19;19998;-48
2022/09/17 00:21:16;;;;;;;;;;;;;;;9.75;100.00;98966.94;3056566;19;19918;-47
2022/09/17 00:22:20;;;;;;;;;;;;;;;9.72;100.00;98973.34;3056393;19;19923;-48
2022/09/17 00:23:22;;;;;;;;;;;;;;;9.70;100.00;98972.63;3055859;19;19988;-48
2022/09/17 00:24:26;;;;;;;;;;;;;;;9.67;100.00;98988.84;3056019;19;20346;-48
2022/09/17 00:25:28;;;;;;;;;;;;;;;9.63;100.00;98981.25;3056581;19;20352;-47
2022/09/17 00:26:33;;;;;;;;;;;;;;;9.60;100.00;98982.34;3056228;19;19923;-47
2022/09/17 00:27:34;;;;;;;;;;;;;;;9.57;100.00;98982.59;3056638;19;19915;-49
2022/09/17 00:28:40;;;;;;;;;;;;;;;9.55;100.00;98986.34;3056364;19;20025;-47
2022/09/17 00:29:42;;;;;;;;;;;;;;;9.52;100.00;98987.47;3055986;19;20520;-47
2022/09/17 00:30:47;;;;;;;;;;;;;;;9.49;100.00;98984.19;3056230;19;19923;-48
2022/09/17 00:31:49;;;;;;;;;;;;;;;9.48;100.00;98988.66;3056419;19;19915;-47
2022/09/17 00:32:56;;;;;;;;;;;;;;;9.45;100.00;98996.91;3055887;19;19922;-47
2022/09/17 00:33:58;;;;;;;;;;;;;;;9.43;100.00;98988.19;3055634;19;20016;-47
2022/09/17 00:35:02;;;;;;;;;;;;;;;9.40;100.00;98991.13;3055011;19;20367;-47
2022/09/17 00:36:04;;;;;;;;;;;;;;;9.37;100.00;98986.03;3056493;19;19933;-48
2022/09/17 00:37:09;;;;;;;;;;;;;;;9.35;100.00;98994.13;3055947;19;19940;-47
2022/09/17 00:38:10;;;;;;;;;;;;;;;9.33;100.00;98984.56;3056395;19;20341;-47
2022/09/17 00:39:16;;;;;;;;;;;;;;;9.28;100.00;98979.63;3055865;19;19931;-47
2022/09/17 00:40:18;;;;;;;;;;;;;;;9.27;100.00;98985.06;3054814;19;19970;-47
2022/09/17 00:41:24;;;;;;;;;;;;;;;9.25;100.00;98981.69;3055902;19;19922;-47
2022/09/17 00:42:25;;;;;;;;;;;;;;;9.22;100.00;98980.13;3056704;19;19930;-47
2022/09/17 00:43:38;;;;;;;;;;;;;;;9.23;100.00;98989.78;3055965;19;20034;-47
2022/09/17 00:44:46;;;;;;;;;;;;;;;9.21;100.00;98989.06;3055490;19;20286;-47
2022/09/17 00:45:52;;;;;;;;;;;;;;;9.20;100.00;98984.69;3056143;19;19926;-47
2022/09/17 00:46:54;;;;;;;;;;;;;;;9.20;100.00;98983.84;3056537;19;19943;-47
2022/09/17 00:48:00;;;;;;;;;;;;;;;9.19;100.00;98982.16;3056243;19;19923;-48
2022/09/17 00:49:04;;;;;;;;;;;;;;;9.17;100.00;98989.44;3055499;19;19942;-47
2022/09/17 00:50:09;;;;;;;;;;;;;;;9.16;100.00;98987.75;3054723;19;20269;-47
2022/09/17 00:51:11;;;;;;;;;;;;;;;9.15;100.00;98980.75;3055460;19;19942;-47
2022/09/17 00:52:17;;;;;;;;;;;;;;;9.14;100.00;98989.69;3054902;19;19987;-47
2022/09/17 00:53:20;;;;;;;;;;;;;;;9.13;100.00;98982.66;3055234;19;19922;-46
2022/09/17 00:54:25;;;;;;;;;;;;;;;9.13;100.00;98982.66;3054800;19;19990;-48
2022/09/17 00:55:28;;;;;;;;;;;;;;;9.12;100.00;98980.97;3055438;19;19936;-47
2022/09/17 00:56:36;;;;;;;;;;;;;;;9.12;100.00;98983.63;3055180;19;19927;-47
2022/09/17 00:57:39;;;;;;;;;;;;;;;9.10;100.00;98993.56;3055430;19;19979;-47
2022/09/17 00:58:44;;;;;;;;;;;;;;;9.07;100.00;98983.97;3055031;19;19923;-48
2022/09/17 00:59:45;;;;;;;;;;;;;;;9.07;100.00;98985.81;3055394;19;19994;-48
2022/09/17 01:00:50;;;;;;;;;;;;;;;9.04;100.00;98989.56;3055787;19;20002;-47
2022/09/17 01:01:52;;;;;;;;;;;;;;;9.05;100.00;98990.44;3056102;19;19947;-48
2022/09/17 01:02:57;;;;;;;;;;;;;;;9.04;100.00;98992.22;3056025;19;19939;-47
2022/09/17 01:03:59;;;;;;;;;;;;;;;9.02;100.00;98988.84;3056311;19;20001;-48
2022/09/17 01:05:03;;;;;;;;;;;;;;;9.00;100.00;98978.31;3054947;19;19970;-48
2022/09/17 01:06:11;;;;;;;;;;;;;;;8.99;100.00;98987.28;3055070;19;19978;-48
2022/09/17 01:07:18;;;;;;;;;;;;;;;8.98;100.00;98985.56;3055357;19;19951;-47
2022/09/17 01:08:23;;;;;;;;;;;;;;;8.95;100.00;98980.47;3055971;19;20445;-47
2022/09/17 01:09:34;;;;;;;;;;;;;;;8.95;100.00;98990.28;3055706;19;20014;-47
2022/09/17 01:10:42;;;;;;;;;;;;;;;8.94;100.00;98981.44;3055807;19;20306;-47
2022/09/17 01:11:46;;;;;;;;;;;;;;;8.90;100.00;98985.34;3056551;19;19974;-47
2022/09/17 01:13:07;;;;;;;;;;;;;;;8.90;100.00;98988.00;3055769;19;19923;-47
2022/09/17 01:14:23;;;;;;;;;;;;;;;8.87;100.00;98990.88;3056097;19;19932;-48
2022/09/17 01:15:31;;;;;;;;;;;;;;;8.87;100.00;98987.38;3055728;19;19930;-48
2022/09/17 01:16:38;;;;;;;;;;;;;;;8.84;100.00;98987.63;3055639;19;20337;-47
2022/09/17 01:17:59;;;;;;;;;;;;;;;8.84;100.00;98977.81;3056019;19;19922;-48
2022/09/17 01:19:03;;;;;;;;;;;;;;;8.82;100.00;98982.41;3055805;19;20034;-47
2022/09/17 01:20:05;;;;;;;;;;;;;;;8.81;100.00;98983.41;3055771;19;20050;-48
2022/09/17 01:21:17;;;;;;;;;;;;;;;8.80;100.00;98981.72;3055550;19;19943;-47
2022/09/17 01:22:21;;;;;;;;;;;;;;;8.78;100.00;98978.31;3055214;19;19987;-48
2022/09/17 01:23:38;;;;;;;;;;;;;;;8.77;100.00;98971.31;3054275;19;19939;-48
2022/09/17 01:24:43;;;;;;;;;;;;;;;8.76;100.00;98974.94;3055695;19;20643;-47
2022/09/17 01:25:47;;;;;;;;;;;;;;;8.76;100.00;98974.94;3054932;19;19922;-47
2022/09/17 01:26:55;;;;;;;;;;;;;;;8.75;100.00;98977.72;3055847;19;19938;-47
2022/09/17 01:28:02;;;;;;;;;;;;;;;8.75;100.00;98967.91;3055544;19;19915;-47
2022/09/17 01:29:04;;;;;;;;;;;;;;;8.75;100.00;98973.22;3055319;19;19922;-48
2022/09/17 01:30:27;;;;;;;;;;;;;;;8.74;100.00;98968.88;3055769;19;19930;-47
2022/09/17 01:31:32;;;;;;;;;;;;;;;8.72;100.00;98968.16;3055547;19;20479;-47
2022/09/17 01:32:44;;;;;;;;;;;;;;;8.72;100.00;98969.97;3055830;19;19923;-47
2022/09/17 01:34:06;;;;;;;;;;;;;;;8.69;100.00;98963.09;3054810;19;20004;-47
2022/09/17 01:35:20;;;;;;;;;;;;;;;8.69;100.00;98963.09;3054704;19;19966;-47
2022/09/17 01:36:35;;;;;;;;;;;;;;;8.69;100.00;98960.44;3055348;19;20045;-47
2022/09/17 01:37:39;;;;;;;;;;;;;;;8.70;100.00;98963.91;3054754;19;19944;-47
2022/09/17 01:38:51;;;;;;;;;;;;;;;8.68;100.00;98969.38;3054605;19;19915;-47
2022/09/17 01:39:59;;;;;;;;;;;;;;;8.69;100.00;98970.22;3055456;19;20373;-47
2022/09/17 01:41:06;;;;;;;;;;;;;;;8.68;100.00;98963.22;3054802;19;19927;-47
2022/09/17 01:42:18;;;;;;;;;;;;;;;8.65;100.00;98964.28;3054294;19;19979;-47
2022/09/17 01:43:31;;;;;;;;;;;;;;;8.66;100.00;98965.97;3055161;19;19995;-47
2022/09/17 01:44:38;;;;;;;;;;;;;;;8.66;100.00;98963.31;3054250;19;19926;-47
2022/09/17 01:45:45;;;;;;;;;;;;;;;8.64;100.00;98959.94;3054159;19;20345;-47
2022/09/17 01:46:54;;;;;;;;;;;;;;;8.65;100.00;98959.81;3055726;19;19927;-47
2022/09/17 01:47:57;;;;;;;;;;;;;;;8.65;100.00;98966.94;3055361;19;20456;-47
2022/09/17 01:49:03;;;;;;;;;;;;;;;8.65;100.00;98961.63;3055550;19;19926;-47
2022/09/17 01:50:08;;;;;;;;;;;;;;;8.56;100.00;98951.72;3054300;19;20391;-47
2022/09/17 01:51:13;;;;;;;;;;;;;;;8.63;100.00;98958.25;3055351;19;19995;-48
2022/09/17 01:52:15;;;;;;;;;;;;;;;8.63;100.00;98963.56;3057781;19;19922;-47
2022/09/17 01:53:20;;;;;;;;;;;;;;;8.64;100.00;98959.94;3057666;19;20271;-47
2022/09/17 01:54:23;;;;;;;;;;;;;;;8.63;100.00;98958.25;3057520;19;20043;-47
2022/09/17 01:55:31;;;;;;;;;;;;;;;8.63;100.00;98960.91;3057645;19;19924;-48
2022/09/17 01:56:41;;;;;;;;;;;;;;;8.63;100.00;98958.25;3057286;19;19922;-47
2022/09/17 01:57:50;;;;;;;;;;;;;;;8.62;100.00;98952.06;3057950;19;19952;-47
2022/09/17 01:58:53;;;;;;;;;;;;;;;8.62;100.00;98956.53;3057727;19;19951;-48
2022/09/17 01:59:58;;;;;;;;;;;;;;;8.63;100.00;98958.25;3057761;19;19930;-48
2022/09/17 02:01:06;;;;;;;;;;;;;;;8.61;100.00;98954.84;3057672;19;20027;-47
2022/09/17 02:02:14;;;;;;;;;;;;;;;8.60;100.00;98958.47;3057885;19;19950;-48
2022/09/17 02:03:48;;;;;;;;;;;;;;;8.59;100.00;98951.44;3057748;19;20540;-48
2022/09/17 02:05:04;;;;;;;;;;;;;;;8.59;100.00;98954.13;3057304;19;19992;-47
2022/09/17 02:06:09;;;;;;;;;;;;;;;8.60;100.00;98958.47;3056709;19;19999;-47
2022/09/17 02:07:13;;;;;;;;;;;;;;;8.58;100.00;98965.72;3057449;19;19934;-48
2022/09/17 02:08:19;;;;;;;;;;;;;;;8.57;100.00;98956.88;3057423;19;19933;-47
2022/09/17 02:09:22;;;;;;;;;;;;;;;8.57;100.00;98953.41;3057185;19;19919;-47
2022/09/17 02:10:33;;;;;;;;;;;;;;;8.58;100.00;98957.72;3057416;19;19926;-47
2022/09/17 02:11:36;;;;;;;;;;;;;;;8.58;100.00;98955.06;3057117;19;19996;-47
2022/09/17 02:12:51;;;;;;;;;;;;;;;8.58;100.00;98955.06;3057325;19;20314;-47
2022/09/17 02:13:59;;;;;;;;;;;;;;;8.58;100.00;98955.06;3057306;19;19946;-47
2022/09/17 02:15:05;;;;;;;;;;;;;;;8.57;100.00;98948.09;3056993;19;19951;-47
2022/09/17 02:16:09;;;;;;;;;;;;;;;8.57;100.00;98942.78;3057538;19;19919;-48
2022/09/17 02:17:26;;;;;;;;;;;;;;;8.58;100.00;98947.09;3057209;19;19923;-47
2022/09/17 02:18:46;;;;;;;;;;;;;;;8.56;100.00;98951.72;3057477;19;20330;-47
2022/09/17 02:19:52;;;;;;;;;;;;;;;8.52;100.00;98948.44;3057482;19;19922;-47
2022/09/17 02:21:08;;;;;;;;;;;;;;;8.51;100.00;98953.88;3058335;19;20319;-47
2022/09/17 02:22:12;;;;;;;;;;;;;;;8.50;100.00;98946.84;3057438;19;20586;-47
2022/09/17 02:23:20;;;;;;;;;;;;;;;8.51;100.00;98954.72;3056270;19;19999;-49
2022/09/17 02:24:27;;;;;;;;;;;;;;;8.51;100.00;98953.88;3057055;19;19922;-47
2022/09/17 02:25:36;;;;;;;;;;;;;;;8.50;100.00;98954.84;3057031;19;19915;-47
2022/09/17 02:26:41;;;;;;;;;;;;;;;8.47;100.00;98947.09;3056375;19;19926;-47
2022/09/17 02:27:45;;;;;;;;;;;;;;;8.47;100.00;98947.09;3057164;19;19946;-47
2022/09/17 02:28:51;;;;;;;;;;;;;;;8.47;100.00;98955.06;3057275;19;19935;-47
2022/09/17 02:29:53;;;;;;;;;;;;;;;8.47;100.00;98949.75;3057100;19;19919;-47
2022/09/17 02:30:57;;;;;;;;;;;;;;;8.47;100.00;98947.09;3056995;19;19922;-47
2022/09/17 02:31:59;;;;;;;;;;;;;;;8.45;100.00;98949.03;3057053;19;19995;-47
2022/09/17 02:33:04;;;;;;;;;;;;;;;8.44;100.00;98945.53;3057252;19;19926;-48
2022/09/17 02:34:07;;;;;;;;;;;;;;;8.44;100.00;98947.34;3057198;19;19978;-47
2022/09/17 02:35:12;;;;;;;;;;;;;;;8.44;100.00;98947.34;3057007;19;20341;-47
2022/09/17 02:36:14;;;;;;;;;;;;;;;8.44;100.00;98947.34;3058057;19;19939;-47
2022/09/17 02:37:18;;;;;;;;;;;;;;;8.44;100.00;98947.34;3056620;19;19982;-48
2022/09/17 02:38:24;;;;;;;;;;;;;;;8.44;100.00;98944.69;3057080;19;19922;-47
2022/09/17 02:39:28;;;;;;;;;;;;;;;8.42;100.00;98950.13;3057047;19;19983;-47
2022/09/17 02:40:31;;;;;;;;;;;;;;;8.41;100.00;98950.25;3057750;19;19996;-48
2022/09/17 02:42:03;;;;;;;;;;;;;;;8.39;100.00;98947.69;3057241;19;19994;-47
2022/09/17 02:43:11;;;;;;;;;;;;;;;8.38;100.00;98953.13;3056100;19;20506;-48
2022/09/17 02:44:34;;;;;;;;;;;;;;;8.38;100.00;98950.47;3057904;19;19967;-47
2022/09/17 02:45:47;;;;;;;;;;;;;;;8.37;100.00;98946.09;3057126;19;20343;-47
2022/09/17 02:46:56;;;;;;;;;;;;;;;8.36;100.00;98949.72;3056058;19;20014;-47
2022/09/17 02:48:06;;;;;;;;;;;;;;;8.34;100.00;98949.00;3057294;19;19947;-47
2022/09/17 02:49:26;;;;;;;;;;;;;;;8.33;100.00;98944.69;3057055;19;20411;-47
2022/09/17 02:50:33;;;;;;;;;;;;;;;8.32;100.00;98948.28;3057928;19;19971;-47
2022/09/17 02:51:44;;;;;;;;;;;;;;;8.30;100.00;98946.56;3058115;19;19950;-47
2022/09/17 02:53:04;;;;;;;;;;;;;;;8.29;100.00;98944.03;3057796;19;20022;-47
2022/09/17 02:54:24;;;;;;;;;;;;;;;8.29;100.00;98944.03;3058011;19;19921;-48
2022/09/17 02:55:38;;;;;;;;;;;;;;;8.28;100.00;98952.97;3057480;19;19931;-48
2022/09/17 02:56:54;;;;;;;;;;;;;;;8.27;100.00;98946.78;3056939;19;19938;-48
2022/09/17 02:58:00;;;;;;;;;;;;;;;8.28;100.00;98944.97;3057142;19;20373;-47
2022/09/17 02:59:10;;;;;;;;;;;;;;;8.28;100.00;98948.50;3056669;19;19923;-46
2022/09/17 03:00:14;;;;;;;;;;;;;;;8.29;100.00;98944.03;3057005;19;19976;-48
2022/09/17 03:01:30;;;;;;;;;;;;;;;8.27;100.00;98948.59;3056752;19;19934;-47
2022/09/17 03:02:43;;;;;;;;;;;;;;;8.28;100.00;98947.63;3056473;19;19962;-47
2022/09/17 03:03:49;;;;;;;;;;;;;;;8.26;100.00;98945.09;3056288;19;19998;-47
2022/09/17 03:04:50;;;;;;;;;;;;;;;8.25;100.00;98947.88;3056566;19;20665;-48
2022/09/17 03:05:55;;;;;;;;;;;;;;;8.25;100.00;98951.38;3056639;19;19919;-47
2022/09/17 03:06:58;;;;;;;;;;;;;;;8.25;100.00;98948.72;3056153;19;20602;-47
2022/09/17 03:08:02;;;;;;;;;;;;;;;8.23;100.00;98950.63;3056642;19;19926;-46
2022/09/17 03:09:04;;;;;;;;;;;;;;;8.22;100.00;98954.25;3056373;19;19923;-47
2022/09/17 03:10:09;;;;;;;;;;;;;;;8.21;100.00;98944.59;3057184;19;19926;-48
2022/09/17 03:11:11;;;;;;;;;;;;;;;8.20;100.00;98950.91;3057395;19;20738;-47
2022/09/17 03:12:16;;;;;;;;;;;;;;;8.18;100.00;98950.16;3057587;19;19926;-48
2022/09/17 03:13:18;;;;;;;;;;;;;;;8.16;100.00;98954.75;3057728;19;20282;-47
2022/09/17 03:14:23;;;;;;;;;;;;;;;8.15;100.00;98957.50;3057106;19;19926;-48
2022/09/17 03:15:25;;;;;;;;;;;;;;;8.13;100.00;98954.13;3057567;19;20338;-47
2022/09/17 03:16:29;;;;;;;;;;;;;;;8.10;100.00;98947.22;3057233;19;19923;-47
2022/09/17 03:17:31;;;;;;;;;;;;;;;8.09;100.00;98953.50;3057492;19;20130;-47
2022/09/17 03:18:36;;;;;;;;;;;;;;;8.08;100.00;98946.53;3057113;19;20619;-47
2022/09/17 03:19:37;;;;;;;;;;;;;;;8.06;100.00;98956.41;3057155;19;20083;-47
2022/09/17 03:20:42;;;;;;;;;;;;;;;8.04;100.00;98950.34;3057317;19;19931;-47
2022/09/17 03:21:44;;;;;;;;;;;;;;;8.04;100.00;98947.69;3057173;19;20337;-47
2022/09/17 03:22:48;;;;;;;;;;;;;;;8.04;100.00;98950.34;3057363;19;19978;-47
2022/09/17 03:23:50;;;;;;;;;;;;;;;8.04;100.00;98954.81;3057051;19;20290;-47
2022/09/17 03:24:55;;;;;;;;;;;;;;;8.02;100.00;98941.66;3057060;19;19930;-47
2022/09/17 03:25:56;;;;;;;;;;;;;;;8.04;100.00;98939.72;3057269;19;19991;-47
2022/09/17 03:27:01;;;;;;;;;;;;;;;8.03;100.00;98937.19;3056764;19;19939;-47
2022/09/17 03:28:02;;;;;;;;;;;;;;;8.04;100.00;98933.56;3056985;19;20481;-47
2022/09/17 03:29:07;;;;;;;;;;;;;;;8.05;100.00;98924.66;3057360;19;19927;-48
2022/09/17 03:30:09;;;;;;;;;;;;;;;8.06;100.00;98932.50;3057177;19;19963;-47
2022/09/17 03:31:13;;;;;;;;;;;;;;;8.08;100.00;98924.41;3057383;19;19919;-47
2022/09/17 03:32:15;;;;;;;;;;;;;;;8.08;100.00;98927.91;3057089;19;19923;-47
2022/09/17 03:33:20;;;;;;;;;;;;;;;8.09;100.00;98926.94;3057321;19;19918;-47
2022/09/17 03:34:22;;;;;;;;;;;;;;;8.09;100.00;98932.25;3057138;19;19922;-47
2022/09/17 03:35:27;;;;;;;;;;;;;;;8.10;100.00;98931.28;3057126;19;20337;-47
2022/09/17 03:36:31;;;;;;;;;;;;;;;8.10;100.00;98922.47;3057626;19;19914;-47
2022/09/17 03:37:33;;;;;;;;;;;;;;;8.10;100.00;98925.97;3057213;19;19938;-47
2022/09/17 03:38:37;;;;;;;;;;;;;;;8.10;100.00;98928.63;3056725;19;19935;-47
2022/09/17 03:39:39;;;;;;;;;;;;;;;8.08;100.00;98935.88;3057167;19;19986;-47
2022/09/17 03:40:44;;;;;;;;;;;;;;;8.10;100.00;98933.94;3057318;19;19930;-47
2022/09/17 03:41:46;;;;;;;;;;;;;;;8.10;100.00;98927.78;3057089;19;19986;-48
2022/09/17 03:42:50;;;;;;;;;;;;;;;8.10;100.00;98925.97;3056944;19;19921;-47
2022/09/17 03:43:52;;;;;;;;;;;;;;;8.11;100.00;98932.13;3057351;19;19938;-48
2022/09/17 03:44:56;;;;;;;;;;;;;;;8.13;100.00;98938.19;3056415;19;20393;-47
2022/09/17 03:45:59;;;;;;;;;;;;;;;8.13;100.00;98924.91;3057418;19;20374;-48
2022/09/17 03:47:03;;;;;;;;;;;;;;;8.13;100.00;98927.56;3056386;19;19998;-47
2022/09/17 03:48:05;;;;;;;;;;;;;;;8.12;100.00;98925.84;3057053;19;20700;-48
2022/09/17 03:50:40;;;;;;;;;;;;;;;8.10;100.00;98923.31;3053028;19;19919;-47
2022/09/17 03:51:42;;;;;;;;;;;;;;;8.09;100.00;98921.63;3057162;19;19982;-47
2022/09/17 03:52:49;;;;;;;;;;;;;;;8.09;100.00;98926.94;3055443;19;20058;-48
2022/09/17 03:53:51;;;;;;;;;;;;;;;8.09;100.00;98920.81;3057151;19;19922;-47
2022/09/17 03:54:55;;;;;;;;;;;;;;;8.08;100.00;98919.09;3055451;19;19992;-47
2022/09/17 03:56:00;;;;;;;;;;;;;;;8.08;100.00;98911.97;3057011;19;20273;-47
2022/09/17 03:57:05;;;;;;;;;;;;;;;8.07;100.00;98918.25;3056547;19;19929;-48
2022/09/17 03:58:07;;;;;;;;;;;;;;;8.04;100.00;98921.13;3056964;19;19927;-47
2022/09/17 03:59:11;;;;;;;;;;;;;;;8.04;100.00;98918.47;3056493;19;19982;-47
2022/09/17 04:00:16;;;;;;;;;;;;;;;8.03;100.00;98919.44;3056901;19;19986;-47
2022/09/17 04:01:20;;;;;;;;;;;;;;;8.01;100.00;98913.41;3056601;19;20353;-47
2022/09/17 04:02:22;;;;;;;;;;;;;;;8.02;100.00;98923.06;3056847;19;19923;-47
2022/09/17 04:03:28;;;;;;;;;;;;;;;8.03;100.00;98921.25;3056662;19;19939;-48
2022/09/17 04:04:29;;;;;;;;;;;;;;;8.03;100.00;98916.78;3056884;19;20378;-46
2022/09/17 04:05:34;;;;;;;;;;;;;;;8.03;100.00;98915.94;3056461;19;20250;-47
2022/09/17 04:06:36;;;;;;;;;;;;;;;8.03;100.00;98905.31;3056873;19;19919;-46
2022/09/17 04:07:41;;;;;;;;;;;;;;;8.02;100.00;98909.78;3056034;19;20068;-47
2022/09/17 04:08:43;;;;;;;;;;;;;;;8.02;100.00;98912.44;3056937;19;19923;-47
2022/09/17 04:09:47;;;;;;;;;;;;;;;8.02;100.00;98914.25;3056563;19;19935;-47
2022/09/17 04:10:50;;;;;;;;;;;;;;;8.02;100.00;98915.09;3056675;19;19934;-47
2022/09/17 04:11:55;;;;;;;;;;;;;;;8.01;100.00;98913.41;3056490;19;19919;-47
2022/09/17 04:12:56;;;;;;;;;;;;;;;8.02;100.00;98912.44;3056666;19;20404;-48
2022/09/17 04:14:01;;;;;;;;;;;;;;;8.03;100.00;98911.47;3056325;19;19935;-48
2022/09/17 04:15:03;;;;;;;;;;;;;;;8.03;100.00;98906.16;3054356;19;19923;-47
2022/09/17 04:16:07;;;;;;;;;;;;;;;8.04;100.00;98910.50;3056477;19;19930;-47
2022/09/17 04:17:10;;;;;;;;;;;;;;;8.05;100.00;98906.91;3056683;19;19930;-47
2022/09/17 04:18:15;;;;;;;;;;;;;;;8.08;100.00;98906.66;3056391;19;19938;-47
2022/09/17 04:19:19;;;;;;;;;;;;;;;8.09;100.00;98907.50;3056275;19;19940;-47
2022/09/17 04:20:21;;;;;;;;;;;;;;;8.10;100.00;98910.03;3056462;19;19994;-47
2022/09/17 04:21:25;;;;;;;;;;;;;;;8.10;100.00;98907.38;3056637;19;19927;-47
2022/09/17 04:22:27;;;;;;;;;;;;;;;8.12;100.00;98913.41;3056476;19;19934;-47
2022/09/17 04:23:32;;;;;;;;;;;;;;;8.14;100.00;98910.66;3056594;19;20002;-47
2022/09/17 04:24:33;;;;;;;;;;;;;;;8.15;100.00;98915.84;3056271;19;20022;-47
2022/09/17 04:25:38;;;;;;;;;;;;;;;8.15;100.00;98915.84;3056491;19;19930;-47
2022/09/17 04:26:40;;;;;;;;;;;;;;;8.17;100.00;98913.94;3056944;19;19947;-47
2022/09/17 04:27:46;;;;;;;;;;;;;;;8.17;100.00;98918.41;3056150;19;20445;-47
2022/09/17 04:28:48;;;;;;;;;;;;;;;8.20;100.00;98916.34;3056258;19;19931;-47
2022/09/17 04:29:52;;;;;;;;;;;;;;;8.22;100.00;98917.06;3056367;19;20003;-48
2022/09/17 04:30:54;;;;;;;;;;;;;;;8.24;100.00;98916.94;3056119;19;20294;-50
2022/09/17 04:31:59;;;;;;;;;;;;;;;8.26;100.00;98918.53;3056460;19;19982;-47
2022/09/17 04:33:00;;;;;;;;;;;;;;;8.27;100.00;98920.22;3055435;19;19917;-47
2022/09/17 04:34:05;;;;;;;;;;;;;;;8.28;100.00;98919.25;3055799;19;19919;-48
2022/09/17 04:35:07;;;;;;;;;;;;;;;8.31;100.00;98926.16;3056159;19;20342;-47
2022/09/17 04:36:11;;;;;;;;;;;;;;;8.33;100.00;98926.06;3054629;19;19923;-48
2022/09/17 04:37:13;;;;;;;;;;;;;;;8.37;100.00;98927.50;3055889;19;19927;-48
2022/09/17 04:38:19;;;;;;;;;;;;;;;8.37;100.00;98927.50;3054392;19;19923;-47
2022/09/17 04:39:21;;;;;;;;;;;;;;;8.39;100.00;98915.78;3053532;19;19986;-48
2022/09/17 04:40:26;;;;;;;;;;;;;;;8.41;100.00;98929.81;3056319;19;19963;-49
2022/09/17 04:41:27;;;;;;;;;;;;;;;8.45;100.00;98927.78;3056712;19;19927;-47
2022/09/17 04:42:32;;;;;;;;;;;;;;;8.47;100.00;98928.47;3056151;19;20338;-48
2022/09/17 04:43:34;;;;;;;;;;;;;;;8.49;100.00;98918.56;3055897;19;19919;-47
2022/09/17 04:44:38;;;;;;;;;;;;;;;8.52;100.00;98918.34;3056229;19;19919;-47
2022/09/17 04:45:41;;;;;;;;;;;;;;;8.55;100.00;98920.78;3056271;19;19923;-47
2022/09/17 04:46:45;;;;;;;;;;;;;;;8.57;100.00;98917.00;3055988;19;20334;-48
2022/09/17 04:47:49;;;;;;;;;;;;;;;8.62;100.00;98921.97;3056219;19;19926;-47
2022/09/17 04:48:54;;;;;;;;;;;;;;;8.64;100.00;98922.72;3054496;19;19926;-49
2022/09/17 04:49:55;;;;;;;;;;;;;;;8.68;100.00;98926.81;3055763;19;19951;-47
2022/09/17 04:51:00;;;;;;;;;;;;;;;8.68;100.00;98924.16;3056374;19;19926;-48
2022/09/17 04:52:02;;;;;;;;;;;;;;;8.72;100.00;98916.78;3055901;19;19952;-46
2022/09/17 04:53:06;;;;;;;;;;;;;;;8.75;100.00;98917.38;3057604;19;19934;-47
2022/09/17 04:54:08;;;;;;;;;;;;;;;8.79;100.00;98920.66;3055310;19;19922;-47
2022/09/17 04:55:13;;;;;;;;;;;;;;;8.81;100.00;98914.25;3054908;19;19988;-47
2022/09/17 04:56:15;;;;;;;;;;;;;;;8.85;100.00;98926.31;3056191;19;19926;-47
2022/09/17 04:57:19;;;;;;;;;;;;;;;8.87;100.00;98924.41;3056035;19;20004;-47
2022/09/17 04:58:23;;;;;;;;;;;;;;;8.93;100.00;98929.25;3056248;19;19934;-47
2022/09/17 04:59:25;;;;;;;;;;;;;;;8.96;100.00;98926.31;3055803;19;19935;-47
2022/09/17 05:00:30;;;;;;;;;;;;;;;8.99;100.00;98928.72;3055935;19;19994;-48
2022/09/17 05:01:31;;;;;;;;;;;;;;;9.02;100.00;98928.50;3056741;19;19978;-48
2022/09/17 05:02:36;;;;;;;;;;;;;;;9.07;100.00;98935.25;3057445;19;20342;-48
2022/09/17 05:03:40;;;;;;;;;;;;;;;9.11;100.00;98934.03;3054991;19;19922;-47
2022/09/17 05:04:42;;;;;;;;;;;;;;;9.15;100.00;98931.03;3055302;19;19926;-47
2022/09/17 05:05:46;;;;;;;;;;;;;;;9.19;100.00;98929.78;3055704;19;20002;-48
2022/09/17 05:06:48;;;;;;;;;;;;;;;9.22;100.00;98929.53;3056090;19;20322;-47
2022/09/17 05:07:53;;;;;;;;;;;;;;;9.27;100.00;98932.69;3055964;19;19930;-48
2022/09/17 05:08:54;;;;;;;;;;;;;;;9.34;100.00;98944.53;3055380;19;19939;-47
2022/09/17 05:09:59;;;;;;;;;;;;;;;9.38;100.00;98942.47;3055698;19;19915;-47
2022/09/17 05:11:01;;;;;;;;;;;;;;;9.47;100.00;98941.72;3056987;19;19918;-47
2022/09/17 05:12:05;;;;;;;;;;;;;;;9.56;100.00;98935.63;3057526;19;19923;-47
2022/09/17 05:13:07;;;;;;;;;;;;;;;9.68;100.00;98933.75;3056204;19;19927;-47
2022/09/17 05:14:12;;;;;;;;;;;;;;;9.82;100.00;98927.28;3055634;19;19919;-47
2022/09/17 05:15:14;;;;;;;;;;;;;;;10.02;100.00;98940.63;3056175;19;19932;-47
2022/09/17 05:16:19;;;;;;;;;;;;;;;10.21;100.00;98931.97;3055957;19;19922;-48
2022/09/17 05:17:21;;;;;;;;;;;;;;;10.41;100.00;98941.78;3055999;19;20423;-47
2022/09/17 05:18:25;;;;;;;;;;;;;;;10.64;100.00;98941.63;3055471;19;19930;-47
2022/09/17 05:19:27;;;;;;;;;;;;;;;10.84;100.00;98932.75;3055473;19;19992;-48
2022/09/17 05:20:31;;;;;;;;;;;;;;;11.00;100.00;98937.56;3054451;19;20684;-48
2022/09/17 05:21:33;;;;;;;;;;;;;;;11.18;100.00;98947.47;3053136;19;19930;-48
2022/09/17 05:22:41;;;;;;;;;;;;;;;11.33;100.00;98949.78;3055029;19;19936;-48
2022/09/17 05:23:43;;;;;;;;;;;;;;;11.50;100.00;98962.44;3054984;19;19927;-48
2022/09/17 05:24:48;;;;;;;;;;;;;;;11.61;100.00;98965.00;3055310;19;19926;-47
2022/09/17 05:25:52;;;;;;;;;;;;;;;11.67;100.00;98980.50;3056294;19;19993;-48
2022/09/17 05:26:54;;;;;;;;;;;;;;;11.78;100.00;98998.25;3057671;19;19915;-48
2022/09/17 05:28:00;;;;;;;;;;;;;;;11.84;100.00;98998.53;3058864;19;19922;-52
2022/09/17 05:29:02;;;;;;;;;;;;;;;12.01;100.00;99010.38;3057754;19;19982;-48
2022/09/17 05:30:07;;;;;;;;;;;;;;;12.13;100.00;99014.63;3057772;19;19922;-48
2022/09/17 05:31:09;;;;;;;;;;;;;;;12.26;100.00;99019.69;3058099;19;19939;-48
2022/09/17 05:32:13;;;;;;;;;;;;;;;12.34;100.00;99022.50;3057482;19;19926;-48
2022/09/17 05:33:15;;;;;;;;;;;;;;;12.43;100.00;99032.38;3055616;19;19988;-48
2022/09/17 05:34:19;;;;;;;;;;;;;;;12.49;100.00;99036.28;3058060;19;19942;-47
2022/09/17 05:35:21;;;;;;;;;;;;;;;12.52;100.00;99055.59;3057527;19;19935;-47
2022/09/17 05:36:26;;;;;;;;;;;;;;;12.51;100.00;99061.91;3056737;19;19923;-48
2022/09/17 05:37:28;;;;;;;;;;;;;;;12.57;100.00;99065.84;3057127;19;19934;-48
2022/09/17 05:38:32;;;;;;;;;;;;;;;12.55;100.00;99071.38;3059063;19;20541;-48
2022/09/17 05:39:34;;;;;;;;;;;;;;;12.56;100.00;99069.50;3058270;19;19939;-47
2022/09/17 05:40:39;;;;;;;;;;;;;;;12.57;100.00;99077.38;3059177;19;20236;-48